sensor_id;sensor_type;location;lat;lon;timestamp;temperature;humidity
13572;DHT22;6857;53.484;10.216;2024-03-25T00:02:10;6.70;99.90
13572;DHT22;6857;53.484;10.216;2024-03-25T00:04:36;6.70;99.90
13572;DHT22;6857;53.484;10.216;2024-03-25T00:07:02;6.80;99.90
13572;DHT22;6857;53.484;10.216;2024-03-25T00:09:28;6.80;99.90
13572;DHT22;6857;53.484;10.216;2024-03-25T00:11:53;6.80;99.90
13572;DHT22;6857;53.484;10.216;2024-03-25T00:14:23;6.80;99.90
13572;DHT22;6857;53.484;10.216;2024-03-25T00:16:49;6.80;99.90
13572;DHT22;6857;53.484;10.216;2024-03-25T00:19:15;6.80;99.90
13572;DHT22;6857;53.484;10.216;2024-03-25T00:21:41;6.80;99.90
13572;DHT22;6857;53.484;10.216;2024-03-25T00:24:07;6.80;99.90
13572;DHT22;6857;53.484;10.216;2024-03-25T00:26:33;6.80;99.90
13572;DHT22;6857;53.484;10.216;2024-03-25T00:28:59;6.80;99.90
13572;DHT22;6857;53.484;10.216;2024-03-25T00:31:24;6.80;99.90
13572;DHT22;6857;53.484;10.216;2024-03-25T00:33:50;6.80;99.90
13572;DHT22;6857;53.484;10.216;2024-03-25T00:36:16;6.80;99.90
13572;DHT22;6857;53.484;10.216;2024-03-25T00:38:44;6.80;99.90
13572;DHT22;6857;53.484;10.216;2024-03-25T00:41:10;6.80;99.90
13572;DHT22;6857;53.484;10.216;2024-03-25T00:43:35;6.80;99.90
13572;DHT22;6857;53.484;10.216;2024-03-25T00:46:01;6.80;99.90
13572;DHT22;6857;53.484;10.216;2024-03-25T00:48:26;6.80;99.90
13572;DHT22;6857;53.484;10.216;2024-03-25T00:50:55;6.80;99.90
13572;DHT22;6857;53.484;10.216;2024-03-25T00:53:21;6.80;99.90
13572;DHT22;6857;53.484;10.216;2024-03-25T00:55:50;6.80;99.90
13572;DHT22;6857;53.484;10.216;2024-03-25T00:58:19;6.80;99.90
13572;DHT22;6857;53.484;10.216;2024-03-25T01:00:45;6.80;99.90
13572;DHT22;6857;53.484;10.216;2024-03-25T01:03:10;6.80;99.90
13572;DHT22;6857;53.484;10.216;2024-03-25T01:05:36;6.80;99.90
13572;DHT22;6857;53.484;10.216;2024-03-25T01:08:01;6.80;99.90
13572;DHT22;6857;53.484;10.216;2024-03-25T01:10:27;6.80;99.90
13572;DHT22;6857;53.484;10.216;2024-03-25T01:12:52;6.80;99.90
13572;DHT22;6857;53.484;10.216;2024-03-25T01:15:18;6.70;99.90
13572;DHT22;6857;53.484;10.216;2024-03-25T01:17:43;6.60;99.90
13572;DHT22;6857;53.484;10.216;2024-03-25T01:20:09;6.60;99.90
13572;DHT22;6857;53.484;10.216;2024-03-25T01:22:35;6.60;99.90
13572;DHT22;6857;53.484;10.216;2024-03-25T01:25:01;6.60;99.90
13572;DHT22;6857;53.484;10.216;2024-03-25T01:27:26;6.60;99.90
13572;DHT22;6857;53.484;10.216;2024-03-25T01:29:51;6.60;99.90
13572;DHT22;6857;53.484;10.216;2024-03-25T01:32:17;6.60;99.90
13572;DHT22;6857;53.484;10.216;2024-03-25T01:34:43;6.60;99.90
13572;DHT22;6857;53.484;10.216;2024-03-25T01:37:08;6.60;99.90
13572;DHT22;6857;53.484;10.216;2024-03-25T01:39:34;6.40;99.90
13572;DHT22;6857;53.484;10.216;2024-03-25T01:41:59;6.30;99.90
13572;DHT22;6857;53.484;10.216;2024-03-25T01:44:25;6.20;99.90
13572;DHT22;6857;53.484;10.216;2024-03-25T01:46:51;6.10;99.90
13572;DHT22;6857;53.484;10.216;2024-03-25T01:49:19;6.10;99.90
13572;DHT22;6857;53.484;10.216;2024-03-25T01:51:45;6.10;99.90
13572;DHT22;6857;53.484;10.216;2024-03-25T01:54:11;6.10;99.90
13572;DHT22;6857;53.484;10.216;2024-03-25T01:56:40;6.10;99.90
13572;DHT22;6857;53.484;10.216;2024-03-25T01:59:07;6.10;99.90
13572;DHT22;6857;53.484;10.216;2024-03-25T02:01:32;6.10;99.90
13572;DHT22;6857;53.484;10.216;2024-03-25T02:03:58;6.10;99.90
13572;DHT22;6857;53.484;10.216;2024-03-25T02:06:27;6.10;99.90
13572;DHT22;6857;53.484;10.216;2024-03-25T02:08:55;6.10;99.90
13572;DHT22;6857;53.484;10.216;2024-03-25T02:11:22;6.10;99.90
13572;DHT22;6857;53.484;10.216;2024-03-25T02:13:49;6.20;99.90
13572;DHT22;6857;53.484;10.216;2024-03-25T02:16:15;6.10;99.90
13572;DHT22;6857;53.484;10.216;2024-03-25T02:18:41;6.10;99.90
13572;DHT22;6857;53.484;10.216;2024-03-25T02:21:06;6.20;99.90
13572;DHT22;6857;53.484;10.216;2024-03-25T02:23:33;6.20;99.90
13572;DHT22;6857;53.484;10.216;2024-03-25T02:25:59;6.20;99.90
13572;DHT22;6857;53.484;10.216;2024-03-25T02:28:25;6.20;99.90
13572;DHT22;6857;53.484;10.216;2024-03-25T02:30:51;6.30;99.90
13572;DHT22;6857;53.484;10.216;2024-03-25T02:33:16;6.30;99.90
13572;DHT22;6857;53.484;10.216;2024-03-25T02:35:43;6.30;99.90
13572;DHT22;6857;53.484;10.216;2024-03-25T02:38:10;6.30;99.90
13572;DHT22;6857;53.484;10.216;2024-03-25T02:40:36;6.20;99.90
13572;DHT22;6857;53.484;10.216;2024-03-25T02:43:01;6.30;99.90
13572;DHT22;6857;53.484;10.216;2024-03-25T02:45:27;6.30;99.90
13572;DHT22;6857;53.484;10.216;2024-03-25T02:47:53;6.30;99.90
13572;DHT22;6857;53.484;10.216;2024-03-25T02:50:19;6.40;99.90
13572;DHT22;6857;53.484;10.216;2024-03-25T02:52:44;6.30;99.90
13572;DHT22;6857;53.484;10.216;2024-03-25T02:55:10;6.20;99.90
13572;DHT22;6857;53.484;10.216;2024-03-25T02:57:35;6.10;99.90
13572;DHT22;6857;53.484;10.216;2024-03-25T03:00:00;6.00;99.90
13572;DHT22;6857;53.484;10.216;2024-03-25T03:02:26;6.00;99.90
13572;DHT22;6857;53.484;10.216;2024-03-25T03:04:52;5.90;99.90
13572;DHT22;6857;53.484;10.216;2024-03-25T03:07:17;5.90;99.90
13572;DHT22;6857;53.484;10.216;2024-03-25T03:09:43;5.80;99.90
13572;DHT22;6857;53.484;10.216;2024-03-25T03:12:08;5.70;99.90
13572;DHT22;6857;53.484;10.216;2024-03-25T03:14:34;5.70;99.90
13572;DHT22;6857;53.484;10.216;2024-03-25T03:17:00;5.70;99.90
13572;DHT22;6857;53.484;10.216;2024-03-25T03:19:30;5.70;99.90
13572;DHT22;6857;53.484;10.216;2024-03-25T03:21:56;5.70;99.90
13572;DHT22;6857;53.484;10.216;2024-03-25T03:24:21;5.70;99.90
13572;DHT22;6857;53.484;10.216;2024-03-25T03:26:47;5.70;99.90
13572;DHT22;6857;53.484;10.216;2024-03-25T03:29:12;5.80;99.90
13572;DHT22;6857;53.484;10.216;2024-03-25T03:31:38;5.80;99.90
13572;DHT22;6857;53.484;10.216;2024-03-25T03:34:03;5.90;99.90
13572;DHT22;6857;53.484;10.216;2024-03-25T03:36:29;5.90;99.90
13572;DHT22;6857;53.484;10.216;2024-03-25T03:38:55;5.90;99.90
13572;DHT22;6857;53.484;10.216;2024-03-25T03:41:20;6.00;99.90
13572;DHT22;6857;53.484;10.216;2024-03-25T03:43:46;6.00;99.90
13572;DHT22;6857;53.484;10.216;2024-03-25T03:46:11;6.00;99.90
13572;DHT22;6857;53.484;10.216;2024-03-25T03:48:37;6.00;99.90
13572;DHT22;6857;53.484;10.216;2024-03-25T03:51:04;6.10;99.90
13572;DHT22;6857;53.484;10.216;2024-03-25T03:53:30;6.10;99.90
13572;DHT22;6857;53.484;10.216;2024-03-25T03:55:57;6.10;99.90
13572;DHT22;6857;53.484;10.216;2024-03-25T03:58:24;6.10;99.90
13572;DHT22;6857;53.484;10.216;2024-03-25T04:00:51;6.10;99.90
13572;DHT22;6857;53.484;10.216;2024-03-25T04:03:17;6.20;99.90
13572;DHT22;6857;53.484;10.216;2024-03-25T04:05:42;6.30;99.90
13572;DHT22;6857;53.484;10.216;2024-03-25T04:08:08;6.30;99.90
13572;DHT22;6857;53.484;10.216;2024-03-25T04:10:34;6.30;99.90
13572;DHT22;6857;53.484;10.216;2024-03-25T04:13:00;6.30;99.90
13572;DHT22;6857;53.484;10.216;2024-03-25T04:15:26;6.40;99.90
13572;DHT22;6857;53.484;10.216;2024-03-25T04:17:51;6.40;99.90
13572;DHT22;6857;53.484;10.216;2024-03-25T04:20:17;6.40;99.90
13572;DHT22;6857;53.484;10.216;2024-03-25T04:22:44;6.40;99.90
13572;DHT22;6857;53.484;10.216;2024-03-25T04:25:10;6.40;99.90
13572;DHT22;6857;53.484;10.216;2024-03-25T04:27:43;6.30;99.90
13572;DHT22;6857;53.484;10.216;2024-03-25T04:30:10;6.50;99.90
13572;DHT22;6857;53.484;10.216;2024-03-25T04:32:37;6.40;99.90
13572;DHT22;6857;53.484;10.216;2024-03-25T04:35:03;6.40;99.90
13572;DHT22;6857;53.484;10.216;2024-03-25T04:37:29;6.30;99.90
13572;DHT22;6857;53.484;10.216;2024-03-25T04:39:55;6.30;99.90
13572;DHT22;6857;53.484;10.216;2024-03-25T04:42:21;6.30;99.90
13572;DHT22;6857;53.484;10.216;2024-03-25T04:44:47;6.30;99.90
13572;DHT22;6857;53.484;10.216;2024-03-25T04:47:13;6.40;99.90
13572;DHT22;6857;53.484;10.216;2024-03-25T04:49:40;6.30;99.90
13572;DHT22;6857;53.484;10.216;2024-03-25T04:52:06;6.30;99.90
13572;DHT22;6857;53.484;10.216;2024-03-25T04:54:32;6.30;99.90
13572;DHT22;6857;53.484;10.216;2024-03-25T04:56:57;6.40;99.90
13572;DHT22;6857;53.484;10.216;2024-03-25T04:59:23;6.40;99.90
13572;DHT22;6857;53.484;10.216;2024-03-25T05:01:48;6.30;99.90
13572;DHT22;6857;53.484;10.216;2024-03-25T05:04:14;6.30;99.90
13572;DHT22;6857;53.484;10.216;2024-03-25T05:06:39;6.30;99.90
13572;DHT22;6857;53.484;10.216;2024-03-25T05:09:05;6.30;99.90
13572;DHT22;6857;53.484;10.216;2024-03-25T05:11:32;6.30;99.90
13572;DHT22;6857;53.484;10.216;2024-03-25T05:13:58;6.20;99.90
13572;DHT22;6857;53.484;10.216;2024-03-25T05:16:23;6.20;99.90
13572;DHT22;6857;53.484;10.216;2024-03-25T05:18:49;6.20;99.90
13572;DHT22;6857;53.484;10.216;2024-03-25T05:21:14;6.10;99.90
13572;DHT22;6857;53.484;10.216;2024-03-25T05:23:40;6.00;99.90
13572;DHT22;6857;53.484;10.216;2024-03-25T05:26:05;6.00;99.90
13572;DHT22;6857;53.484;10.216;2024-03-25T05:28:31;5.90;99.90
13572;DHT22;6857;53.484;10.216;2024-03-25T05:30:57;6.00;99.90
13572;DHT22;6857;53.484;10.216;2024-03-25T05:33:22;6.00;99.90
13572;DHT22;6857;53.484;10.216;2024-03-25T05:35:48;6.00;99.90
13572;DHT22;6857;53.484;10.216;2024-03-25T05:38:14;6.10;99.90
13572;DHT22;6857;53.484;10.216;2024-03-25T05:40:39;6.10;99.90
13572;DHT22;6857;53.484;10.216;2024-03-25T05:43:05;6.20;99.90
13572;DHT22;6857;53.484;10.216;2024-03-25T05:45:30;6.20;99.90
13572;DHT22;6857;53.484;10.216;2024-03-25T05:47:56;6.30;99.90
13572;DHT22;6857;53.484;10.216;2024-03-25T05:50:21;6.20;99.90
13572;DHT22;6857;53.484;10.216;2024-03-25T05:52:47;6.30;99.90
13572;DHT22;6857;53.484;10.216;2024-03-25T05:55:12;6.30;99.90
13572;DHT22;6857;53.484;10.216;2024-03-25T05:57:38;6.20;99.90
13572;DHT22;6857;53.484;10.216;2024-03-25T06:00:04;6.10;99.90
13572;DHT22;6857;53.484;10.216;2024-03-25T06:02:30;6.20;99.90
13572;DHT22;6857;53.484;10.216;2024-03-25T06:04:55;6.20;99.90
13572;DHT22;6857;53.484;10.216;2024-03-25T06:07:22;6.10;99.90
13572;DHT22;6857;53.484;10.216;2024-03-25T06:09:48;6.10;99.90
13572;DHT22;6857;53.484;10.216;2024-03-25T06:12:13;6.20;99.90
13572;DHT22;6857;53.484;10.216;2024-03-25T06:14:39;6.30;99.90
13572;DHT22;6857;53.484;10.216;2024-03-25T06:17:05;6.40;99.90
13572;DHT22;6857;53.484;10.216;2024-03-25T06:19:30;6.30;99.90
13572;DHT22;6857;53.484;10.216;2024-03-25T06:21:56;6.30;99.90
13572;DHT22;6857;53.484;10.216;2024-03-25T06:24:21;6.20;99.90
13572;DHT22;6857;53.484;10.216;2024-03-25T06:26:47;6.30;99.90
13572;DHT22;6857;53.484;10.216;2024-03-25T06:29:12;6.30;99.90
13572;DHT22;6857;53.484;10.216;2024-03-25T06:31:38;6.40;99.90
13572;DHT22;6857;53.484;10.216;2024-03-25T06:34:22;6.40;99.90
13572;DHT22;6857;53.484;10.216;2024-03-25T06:36:48;6.40;99.90
13572;DHT22;6857;53.484;10.216;2024-03-25T06:39:14;6.50;99.90
13572;DHT22;6857;53.484;10.216;2024-03-25T06:41:40;6.60;99.90
13572;DHT22;6857;53.484;10.216;2024-03-25T06:44:05;6.70;99.90
13572;DHT22;6857;53.484;10.216;2024-03-25T06:46:31;6.60;99.90
13572;DHT22;6857;53.484;10.216;2024-03-25T06:48:57;6.60;99.90
13572;DHT22;6857;53.484;10.216;2024-03-25T06:51:23;6.60;99.90
13572;DHT22;6857;53.484;10.216;2024-03-25T06:53:48;6.60;99.90
13572;DHT22;6857;53.484;10.216;2024-03-25T06:56:14;6.50;99.90
13572;DHT22;6857;53.484;10.216;2024-03-25T06:58:40;6.50;99.90
13572;DHT22;6857;53.484;10.216;2024-03-25T07:01:07;6.50;99.90
13572;DHT22;6857;53.484;10.216;2024-03-25T07:03:33;6.50;99.90
13572;DHT22;6857;53.484;10.216;2024-03-25T07:06:00;6.50;99.90
13572;DHT22;6857;53.484;10.216;2024-03-25T07:08:26;6.50;99.90
13572;DHT22;6857;53.484;10.216;2024-03-25T07:10:52;6.50;99.90
13572;DHT22;6857;53.484;10.216;2024-03-25T07:13:18;6.60;99.90
13572;DHT22;6857;53.484;10.216;2024-03-25T07:15:44;6.60;99.90
13572;DHT22;6857;53.484;10.216;2024-03-25T07:18:10;6.70;99.90
13572;DHT22;6857;53.484;10.216;2024-03-25T07:20:39;6.70;99.90
13572;DHT22;6857;53.484;10.216;2024-03-25T07:23:05;6.60;99.90
13572;DHT22;6857;53.484;10.216;2024-03-25T07:25:31;6.60;99.90
13572;DHT22;6857;53.484;10.216;2024-03-25T07:27:57;6.40;99.90
13572;DHT22;6857;53.484;10.216;2024-03-25T07:30:23;6.20;99.90
13572;DHT22;6857;53.484;10.216;2024-03-25T07:32:53;6.20;99.90
13572;DHT22;6857;53.484;10.216;2024-03-25T07:35:18;6.20;99.90
13572;DHT22;6857;53.484;10.216;2024-03-25T07:37:44;6.20;99.90
13572;DHT22;6857;53.484;10.216;2024-03-25T07:40:09;6.20;99.90
13572;DHT22;6857;53.484;10.216;2024-03-25T07:42:40;6.20;99.90
13572;DHT22;6857;53.484;10.216;2024-03-25T07:45:06;6.20;99.90
13572;DHT22;6857;53.484;10.216;2024-03-25T07:47:34;6.10;99.90
13572;DHT22;6857;53.484;10.216;2024-03-25T07:50:00;6.10;99.90
13572;DHT22;6857;53.484;10.216;2024-03-25T07:52:26;6.20;99.90
13572;DHT22;6857;53.484;10.216;2024-03-25T07:54:52;6.20;99.90
13572;DHT22;6857;53.484;10.216;2024-03-25T07:57:18;6.10;99.90
13572;DHT22;6857;53.484;10.216;2024-03-25T07:59:45;6.10;99.90
13572;DHT22;6857;53.484;10.216;2024-03-25T08:02:10;6.10;99.90
13572;DHT22;6857;53.484;10.216;2024-03-25T08:04:36;6.10;99.90
13572;DHT22;6857;53.484;10.216;2024-03-25T08:07:01;6.20;99.90
13572;DHT22;6857;53.484;10.216;2024-03-25T08:09:28;6.10;99.90
13572;DHT22;6857;53.484;10.216;2024-03-25T08:11:53;6.20;99.90
13572;DHT22;6857;53.484;10.216;2024-03-25T08:14:19;6.20;99.90
13572;DHT22;6857;53.484;10.216;2024-03-25T08:16:45;6.30;99.90
13572;DHT22;6857;53.484;10.216;2024-03-25T08:19:10;6.40;99.90
13572;DHT22;6857;53.484;10.216;2024-03-25T08:21:36;6.40;99.90
13572;DHT22;6857;53.484;10.216;2024-03-25T08:24:01;6.50;99.90
13572;DHT22;6857;53.484;10.216;2024-03-25T08:26:27;6.50;99.90
13572;DHT22;6857;53.484;10.216;2024-03-25T08:28:52;6.50;99.90
13572;DHT22;6857;53.484;10.216;2024-03-25T08:31:18;6.40;99.90
13572;DHT22;6857;53.484;10.216;2024-03-25T08:33:43;6.30;99.90
13572;DHT22;6857;53.484;10.216;2024-03-25T08:36:09;6.20;99.90
13572;DHT22;6857;53.484;10.216;2024-03-25T08:38:34;6.20;99.90
13572;DHT22;6857;53.484;10.216;2024-03-25T08:41:00;6.30;99.90
13572;DHT22;6857;53.484;10.216;2024-03-25T08:43:26;6.40;99.90
13572;DHT22;6857;53.484;10.216;2024-03-25T08:45:51;6.60;99.90
13572;DHT22;6857;53.484;10.216;2024-03-25T08:48:17;6.70;99.90
13572;DHT22;6857;53.484;10.216;2024-03-25T08:50:42;6.70;99.90
13572;DHT22;6857;53.484;10.216;2024-03-25T08:53:08;6.70;99.90
13572;DHT22;6857;53.484;10.216;2024-03-25T08:55:33;6.80;99.90
13572;DHT22;6857;53.484;10.216;2024-03-25T08:57:59;6.90;99.90
13572;DHT22;6857;53.484;10.216;2024-03-25T09:00:28;7.00;99.90
13572;DHT22;6857;53.484;10.216;2024-03-25T09:02:54;7.10;99.90
13572;DHT22;6857;53.484;10.216;2024-03-25T09:05:22;7.30;99.90
13572;DHT22;6857;53.484;10.216;2024-03-25T09:07:51;7.60;99.90
13572;DHT22;6857;53.484;10.216;2024-03-25T09:10:20;7.90;99.90
13572;DHT22;6857;53.484;10.216;2024-03-25T09:13:04;8.00;99.90
13572;DHT22;6857;53.484;10.216;2024-03-25T09:15:30;8.10;99.90
13572;DHT22;6857;53.484;10.216;2024-03-25T09:17:56;8.20;99.90
13572;DHT22;6857;53.484;10.216;2024-03-25T09:20:22;8.20;99.90
13572;DHT22;6857;53.484;10.216;2024-03-25T09:22:47;8.20;99.90
13572;DHT22;6857;53.484;10.216;2024-03-25T09:25:14;8.20;99.90
13572;DHT22;6857;53.484;10.216;2024-03-25T09:27:40;8.30;99.90
13572;DHT22;6857;53.484;10.216;2024-03-25T09:30:06;8.30;99.90
13572;DHT22;6857;53.484;10.216;2024-03-25T09:32:34;8.20;99.90
13572;DHT22;6857;53.484;10.216;2024-03-25T09:35:00;8.20;99.90
13572;DHT22;6857;53.484;10.216;2024-03-25T09:37:25;8.10;99.90
13572;DHT22;6857;53.484;10.216;2024-03-25T09:39:52;7.90;99.90
13572;DHT22;6857;53.484;10.216;2024-03-25T09:42:26;7.60;99.90
13572;DHT22;6857;53.484;10.216;2024-03-25T09:44:55;7.50;99.90
13572;DHT22;6857;53.484;10.216;2024-03-25T09:47:23;7.50;99.90
13572;DHT22;6857;53.484;10.216;2024-03-25T09:49:49;7.70;99.90
13572;DHT22;6857;53.484;10.216;2024-03-25T09:52:15;7.90;99.90
13572;DHT22;6857;53.484;10.216;2024-03-25T09:54:41;8.10;99.90
13572;DHT22;6857;53.484;10.216;2024-03-25T09:57:08;8.40;99.90
13572;DHT22;6857;53.484;10.216;2024-03-25T09:59:34;8.60;99.90
13572;DHT22;6857;53.484;10.216;2024-03-25T10:02:00;8.70;99.90
13572;DHT22;6857;53.484;10.216;2024-03-25T10:04:26;8.90;99.90
13572;DHT22;6857;53.484;10.216;2024-03-25T10:06:52;8.90;99.90
13572;DHT22;6857;53.484;10.216;2024-03-25T10:09:19;8.90;99.90
13572;DHT22;6857;53.484;10.216;2024-03-25T10:11:50;9.00;99.90
13572;DHT22;6857;53.484;10.216;2024-03-25T10:14:16;9.00;99.90
13572;DHT22;6857;53.484;10.216;2024-03-25T10:16:42;8.90;99.90
13572;DHT22;6857;53.484;10.216;2024-03-25T10:19:09;8.90;99.90
13572;DHT22;6857;53.484;10.216;2024-03-25T10:21:35;8.90;99.90
13572;DHT22;6857;53.484;10.216;2024-03-25T10:24:00;9.00;99.90
13572;DHT22;6857;53.484;10.216;2024-03-25T10:26:32;9.20;99.90
13572;DHT22;6857;53.484;10.216;2024-03-25T10:29:04;9.50;99.90
13572;DHT22;6857;53.484;10.216;2024-03-25T10:31:30;9.70;99.90
13572;DHT22;6857;53.484;10.216;2024-03-25T10:33:56;9.70;99.90
13572;DHT22;6857;53.484;10.216;2024-03-25T10:36:22;9.70;99.90
13572;DHT22;6857;53.484;10.216;2024-03-25T10:38:54;9.50;99.90
13572;DHT22;6857;53.484;10.216;2024-03-25T10:41:20;9.10;99.90
13572;DHT22;6857;53.484;10.216;2024-03-25T10:43:47;8.40;99.90
13572;DHT22;6857;53.484;10.216;2024-03-25T10:46:18;7.90;99.90
13572;DHT22;6857;53.484;10.216;2024-03-25T10:48:57;7.60;99.90
13572;DHT22;6857;53.484;10.216;2024-03-25T10:51:26;7.50;99.90
13572;DHT22;6857;53.484;10.216;2024-03-25T10:53:52;7.60;99.90
13572;DHT22;6857;53.484;10.216;2024-03-25T10:56:23;7.70;99.90
13572;DHT22;6857;53.484;10.216;2024-03-25T10:58:49;8.00;99.90
13572;DHT22;6857;53.484;10.216;2024-03-25T11:01:18;8.30;99.90
13572;DHT22;6857;53.484;10.216;2024-03-25T11:03:46;8.70;99.90
13572;DHT22;6857;53.484;10.216;2024-03-25T11:06:12;9.00;99.90
13572;DHT22;6857;53.484;10.216;2024-03-25T11:08:38;9.10;99.90
13572;DHT22;6857;53.484;10.216;2024-03-25T11:11:05;9.30;99.90
13572;DHT22;6857;53.484;10.216;2024-03-25T11:13:31;9.40;99.90
13572;DHT22;6857;53.484;10.216;2024-03-25T11:15:57;9.40;99.90
13572;DHT22;6857;53.484;10.216;2024-03-25T11:18:25;9.50;99.90
13572;DHT22;6857;53.484;10.216;2024-03-25T11:21:04;9.40;99.90
13572;DHT22;6857;53.484;10.216;2024-03-25T11:23:42;9.30;99.90
13572;DHT22;6857;53.484;10.216;2024-03-25T11:26:42;9.20;99.90
13572;DHT22;6857;53.484;10.216;2024-03-25T11:29:08;9.20;99.90
13572;DHT22;6857;53.484;10.216;2024-03-25T11:31:34;9.20;99.90
13572;DHT22;6857;53.484;10.216;2024-03-25T11:34:06;9.30;99.90
13572;DHT22;6857;53.484;10.216;2024-03-25T11:36:33;9.30;99.90
13572;DHT22;6857;53.484;10.216;2024-03-25T11:39:00;9.40;99.90
13572;DHT22;6857;53.484;10.216;2024-03-25T11:41:29;9.50;99.90
13572;DHT22;6857;53.484;10.216;2024-03-25T11:43:55;9.60;99.90
13572;DHT22;6857;53.484;10.216;2024-03-25T11:46:25;9.70;99.90
13572;DHT22;6857;53.484;10.216;2024-03-25T11:48:51;9.90;99.90
13572;DHT22;6857;53.484;10.216;2024-03-25T11:51:17;9.90;99.90
13572;DHT22;6857;53.484;10.216;2024-03-25T11:53:43;9.90;99.90
13572;DHT22;6857;53.484;10.216;2024-03-25T11:56:10;10.00;99.90
13572;DHT22;6857;53.484;10.216;2024-03-25T11:58:36;10.10;99.90
13572;DHT22;6857;53.484;10.216;2024-03-25T12:01:02;10.10;99.90
13572;DHT22;6857;53.484;10.216;2024-03-25T12:03:27;10.20;99.90
13572;DHT22;6857;53.484;10.216;2024-03-25T12:05:53;10.30;99.90
13572;DHT22;6857;53.484;10.216;2024-03-25T12:08:20;10.40;99.90
13572;DHT22;6857;53.484;10.216;2024-03-25T12:10:47;10.40;99.90
13572;DHT22;6857;53.484;10.216;2024-03-25T12:13:31;10.30;99.90
13572;DHT22;6857;53.484;10.216;2024-03-25T12:15:57;10.20;99.90
13572;DHT22;6857;53.484;10.216;2024-03-25T12:18:22;10.10;99.90
13572;DHT22;6857;53.484;10.216;2024-03-25T12:20:48;10.10;99.90
13572;DHT22;6857;53.484;10.216;2024-03-25T12:23:14;10.10;99.90
13572;DHT22;6857;53.484;10.216;2024-03-25T12:25:40;10.20;99.90
13572;DHT22;6857;53.484;10.216;2024-03-25T12:28:09;10.30;99.90
13572;DHT22;6857;53.484;10.216;2024-03-25T12:30:48;11.00;99.90
13572;DHT22;6857;53.484;10.216;2024-03-25T12:33:14;12.30;99.90
13572;DHT22;6857;53.484;10.216;2024-03-25T12:35:40;12.50;99.90
13572;DHT22;6857;53.484;10.216;2024-03-25T12:38:05;12.10;99.90
13572;DHT22;6857;53.484;10.216;2024-03-25T12:40:31;11.70;99.90
13572;DHT22;6857;53.484;10.216;2024-03-25T12:42:57;11.40;99.90
13572;DHT22;6857;53.484;10.216;2024-03-25T12:45:23;11.00;99.90
13572;DHT22;6857;53.484;10.216;2024-03-25T12:47:50;10.70;99.90
13572;DHT22;6857;53.484;10.216;2024-03-25T12:50:15;10.40;99.90
13572;DHT22;6857;53.484;10.216;2024-03-25T12:52:41;10.20;99.90
13572;DHT22;6857;53.484;10.216;2024-03-25T12:55:06;10.20;99.90
13572;DHT22;6857;53.484;10.216;2024-03-25T12:57:32;10.30;99.90
13572;DHT22;6857;53.484;10.216;2024-03-25T12:59:58;10.40;99.90
13572;DHT22;6857;53.484;10.216;2024-03-25T13:02:24;10.40;99.90
13572;DHT22;6857;53.484;10.216;2024-03-25T13:04:49;10.40;99.90
13572;DHT22;6857;53.484;10.216;2024-03-25T13:07:15;10.40;99.90
13572;DHT22;6857;53.484;10.216;2024-03-25T13:09:41;10.20;99.90
13572;DHT22;6857;53.484;10.216;2024-03-25T13:12:06;9.90;99.90
13572;DHT22;6857;53.484;10.216;2024-03-25T13:14:32;9.50;99.90
13572;DHT22;6857;53.484;10.216;2024-03-25T13:16:57;9.20;99.90
13572;DHT22;6857;53.484;10.216;2024-03-25T13:19:23;9.00;99.90
13572;DHT22;6857;53.484;10.216;2024-03-25T13:21:49;9.00;99.90
13572;DHT22;6857;53.484;10.216;2024-03-25T13:24:15;9.10;99.90
13572;DHT22;6857;53.484;10.216;2024-03-25T13:26:40;9.20;99.90
13572;DHT22;6857;53.484;10.216;2024-03-25T13:29:06;9.40;99.90
13572;DHT22;6857;53.484;10.216;2024-03-25T13:31:33;9.70;99.90
13572;DHT22;6857;53.484;10.216;2024-03-25T13:33:58;10.00;99.90
13572;DHT22;6857;53.484;10.216;2024-03-25T13:36:24;11.00;99.90
13572;DHT22;6857;53.484;10.216;2024-03-25T13:38:49;11.80;99.90
13572;DHT22;6857;53.484;10.216;2024-03-25T13:41:15;12.30;99.90
13572;DHT22;6857;53.484;10.216;2024-03-25T13:43:43;13.00;99.90
13572;DHT22;6857;53.484;10.216;2024-03-25T13:46:09;13.40;99.90
13572;DHT22;6857;53.484;10.216;2024-03-25T13:48:34;13.90;99.90
13572;DHT22;6857;53.484;10.216;2024-03-25T13:51:00;14.10;99.90
13572;DHT22;6857;53.484;10.216;2024-03-25T13:53:26;13.90;99.90
13572;DHT22;6857;53.484;10.216;2024-03-25T13:55:52;13.90;99.90
13572;DHT22;6857;53.484;10.216;2024-03-25T13:58:17;13.80;99.90
13572;DHT22;6857;53.484;10.216;2024-03-25T14:00:43;13.20;99.90
13572;DHT22;6857;53.484;10.216;2024-03-25T14:03:08;12.50;99.90
13572;DHT22;6857;53.484;10.216;2024-03-25T14:05:34;11.70;99.90
13572;DHT22;6857;53.484;10.216;2024-03-25T14:08:00;11.10;99.90
13572;DHT22;6857;53.484;10.216;2024-03-25T14:10:25;10.70;99.90
13572;DHT22;6857;53.484;10.216;2024-03-25T14:12:51;10.50;99.90
13572;DHT22;6857;53.484;10.216;2024-03-25T14:15:16;10.40;99.90
13572;DHT22;6857;53.484;10.216;2024-03-25T14:17:42;10.20;99.90
13572;DHT22;6857;53.484;10.216;2024-03-25T14:20:08;10.00;99.90
13572;DHT22;6857;53.484;10.216;2024-03-25T14:22:34;9.80;99.90
13572;DHT22;6857;53.484;10.216;2024-03-25T14:25:00;9.70;99.90
13572;DHT22;6857;53.484;10.216;2024-03-25T14:27:26;9.60;99.90
13572;DHT22;6857;53.484;10.216;2024-03-25T14:29:52;9.60;99.90
13572;DHT22;6857;53.484;10.216;2024-03-25T14:32:22;9.50;99.90
13572;DHT22;6857;53.484;10.216;2024-03-25T14:34:48;9.40;99.90
13572;DHT22;6857;53.484;10.216;2024-03-25T14:37:14;9.40;99.90
13572;DHT22;6857;53.484;10.216;2024-03-25T14:39:41;9.40;99.90
13572;DHT22;6857;53.484;10.216;2024-03-25T14:42:09;9.50;99.90
13572;DHT22;6857;53.484;10.216;2024-03-25T14:44:36;9.60;99.90
13572;DHT22;6857;53.484;10.216;2024-03-25T14:47:02;9.80;99.90
13572;DHT22;6857;53.484;10.216;2024-03-25T14:49:27;9.90;99.90
13572;DHT22;6857;53.484;10.216;2024-03-25T14:51:53;10.20;99.90
13572;DHT22;6857;53.484;10.216;2024-03-25T14:54:18;10.40;99.90
13572;DHT22;6857;53.484;10.216;2024-03-25T14:56:45;10.60;99.90
13572;DHT22;6857;53.484;10.216;2024-03-25T14:59:10;11.00;99.90
13572;DHT22;6857;53.484;10.216;2024-03-25T15:01:36;11.00;99.90
13572;DHT22;6857;53.484;10.216;2024-03-25T15:04:03;11.30;99.90
13572;DHT22;6857;53.484;10.216;2024-03-25T15:06:29;11.60;99.90
13572;DHT22;6857;53.484;10.216;2024-03-25T15:08:55;11.60;99.90
13572;DHT22;6857;53.484;10.216;2024-03-25T15:11:21;11.90;99.90
13572;DHT22;6857;53.484;10.216;2024-03-25T15:13:46;12.60;99.90
13572;DHT22;6857;53.484;10.216;2024-03-25T15:16:12;13.20;99.90
13572;DHT22;6857;53.484;10.216;2024-03-25T15:18:37;13.20;99.90
13572;DHT22;6857;53.484;10.216;2024-03-25T15:21:05;12.70;99.90
13572;DHT22;6857;53.484;10.216;2024-03-25T15:23:31;12.80;99.90
13572;DHT22;6857;53.484;10.216;2024-03-25T15:25:57;13.40;99.90
13572;DHT22;6857;53.484;10.216;2024-03-25T15:28:23;13.60;99.90
13572;DHT22;6857;53.484;10.216;2024-03-25T15:30:49;13.50;99.90
13572;DHT22;6857;53.484;10.216;2024-03-25T15:33:15;12.50;99.90
13572;DHT22;6857;53.484;10.216;2024-03-25T15:35:41;12.20;99.90
13572;DHT22;6857;53.484;10.216;2024-03-25T15:38:06;11.70;99.90